sensor_id;sensor_type;location;lat;lon;timestamp;P1;durP1;ratioP1;P2;durP2;ratioP2
80229;SDS011;69540;42.136;24.742;2023-07-20T00:01:03;2.28;;;2.08;;
80229;SDS011;69540;42.136;24.742;2023-07-20T00:03:29;2.75;;;2.35;;
80229;SDS011;69540;42.136;24.742;2023-07-20T00:05:55;2.22;;;2.13;;
80229;SDS011;69540;42.136;24.742;2023-07-20T00:08:20;2.67;;;2.47;;
80229;SDS011;69540;42.136;24.742;2023-07-20T00:10:46;2.25;;;2.15;;
80229;SDS011;69540;42.136;24.742;2023-07-20T00:13:11;2.40;;;2.30;;
80229;SDS011;69540;42.136;24.742;2023-07-20T00:15:37;2.60;;;2.40;;
80229;SDS011;69540;42.136;24.742;2023-07-20T00:18:06;2.65;;;2.47;;
80229;SDS011;69540;42.136;24.742;2023-07-20T00:20:32;2.45;;;2.25;;
80229;SDS011;69540;42.136;24.742;2023-07-20T00:22:57;3.65;;;2.53;;
80229;SDS011;69540;42.136;24.742;2023-07-20T00:25:24;2.50;;;2.28;;
80229;SDS011;69540;42.136;24.742;2023-07-20T00:27:50;2.90;;;2.70;;
80229;SDS011;69540;42.136;24.742;2023-07-20T00:30:16;2.28;;;2.17;;
80229;SDS011;69540;42.136;24.742;2023-07-20T00:32:42;2.58;;;2.35;;
80229;SDS011;69540;42.136;24.742;2023-07-20T00:35:08;2.00;;;1.90;;
80229;SDS011;69540;42.136;24.742;2023-07-20T00:37:34;2.45;;;2.25;;
80229;SDS011;69540;42.136;24.742;2023-07-20T00:40:00;2.40;;;2.20;;
80229;SDS011;69540;42.136;24.742;2023-07-20T00:42:26;2.75;;;2.55;;
80229;SDS011;69540;42.136;24.742;2023-07-20T00:44:51;2.30;;;2.20;;
80229;SDS011;69540;42.136;24.742;2023-07-20T00:47:17;2.40;;;2.30;;
80229;SDS011;69540;42.136;24.742;2023-07-20T00:49:42;2.58;;;2.40;;
80229;SDS011;69540;42.136;24.742;2023-07-20T00:52:09;2.70;;;2.50;;
80229;SDS011;69540;42.136;24.742;2023-07-20T00:54:39;2.42;;;2.33;;
80229;SDS011;69540;42.136;24.742;2023-07-20T00:57:06;2.20;;;2.10;;
80229;SDS011;69540;42.136;24.742;2023-07-20T00:59:33;2.40;;;2.22;;
80229;SDS011;69540;42.136;24.742;2023-07-20T01:01:59;2.40;;;2.20;;
80229;SDS011;69540;42.136;24.742;2023-07-20T01:04:25;2.40;;;2.30;;
80229;SDS011;69540;42.136;24.742;2023-07-20T01:09:58;2.50;;;2.40;;
80229;SDS011;69540;42.136;24.742;2023-07-20T01:12:42;2.33;;;2.22;;
80229;SDS011;69540;42.136;24.742;2023-07-20T01:15:08;2.53;;;2.33;;
80229;SDS011;69540;42.136;24.742;2023-07-20T01:17:35;2.33;;;2.22;;
80229;SDS011;69540;42.136;24.742;2023-07-20T01:20:01;2.58;;;2.40;;
80229;SDS011;69540;42.136;24.742;2023-07-20T01:27:36;2.25;;;2.10;;
80229;SDS011;69540;42.136;24.742;2023-07-20T01:30:26;2.50;;;2.30;;
80229;SDS011;69540;42.136;24.742;2023-07-20T01:32:56;2.50;;;2.30;;
80229;SDS011;69540;42.136;24.742;2023-07-20T01:35:23;2.38;;;2.20;;
80229;SDS011;69540;42.136;24.742;2023-07-20T01:37:53;2.80;;;2.60;;
80229;SDS011;69540;42.136;24.742;2023-07-20T01:40:19;2.45;;;2.28;;
80229;SDS011;69540;42.136;24.742;2023-07-20T01:42:47;2.58;;;2.40;;
80229;SDS011;69540;42.136;24.742;2023-07-20T01:45:13;2.30;;;2.20;;
80229;SDS011;69540;42.136;24.742;2023-07-20T01:47:39;2.22;;;2.13;;
80229;SDS011;69540;42.136;24.742;2023-07-20T01:50:05;2.20;;;2.05;;
80229;SDS011;69540;42.136;24.742;2023-07-20T01:52:31;2.50;;;2.38;;
80229;SDS011;69540;42.136;24.742;2023-07-20T01:54:57;2.40;;;2.20;;
80229;SDS011;69540;42.136;24.742;2023-07-20T01:57:22;2.55;;;2.40;;
80229;SDS011;69540;42.136;24.742;2023-07-20T01:59:48;2.42;;;2.22;;
80229;SDS011;69540;42.136;24.742;2023-07-20T02:02:15;2.58;;;2.38;;
80229;SDS011;69540;42.136;24.742;2023-07-20T02:04:40;2.65;;;2.45;;
80229;SDS011;69540;42.136;24.742;2023-07-20T02:07:06;2.78;;;2.58;;
80229;SDS011;69540;42.136;24.742;2023-07-20T02:09:32;2.60;;;2.50;;
80229;SDS011;69540;42.136;24.742;2023-07-20T02:11:57;2.40;;;2.30;;
80229;SDS011;69540;42.136;24.742;2023-07-20T02:14:23;2.40;;;2.30;;
80229;SDS011;69540;42.136;24.742;2023-07-20T02:16:48;2.40;;;2.30;;
80229;SDS011;69540;42.136;24.742;2023-07-20T02:19:19;2.60;;;2.40;;
80229;SDS011;69540;42.136;24.742;2023-07-20T02:21:45;2.33;;;2.22;;
80229;SDS011;69540;42.136;24.742;2023-07-20T02:24:11;2.40;;;2.20;;
80229;SDS011;69540;42.136;24.742;2023-07-20T02:26:38;2.60;;;2.40;;
80229;SDS011;69540;42.136;24.742;2023-07-20T02:29:03;2.50;;;2.40;;
80229;SDS011;69540;42.136;24.742;2023-07-20T02:31:30;2.47;;;2.30;;
80229;SDS011;69540;42.136;24.742;2023-07-20T02:33:55;2.53;;;2.33;;
80229;SDS011;69540;42.136;24.742;2023-07-20T02:36:21;2.08;;;1.98;;
80229;SDS011;69540;42.136;24.742;2023-07-20T02:38:47;2.50;;;2.30;;
80229;SDS011;69540;42.136;24.742;2023-07-20T02:41:13;2.63;;;2.25;;
80229;SDS011;69540;42.136;24.742;2023-07-20T02:43:38;2.70;;;2.50;;
80229;SDS011;69540;42.136;24.742;2023-07-20T02:46:04;2.42;;;2.28;;
80229;SDS011;69540;42.136;24.742;2023-07-20T02:48:30;2.47;;;2.38;;
80229;SDS011;69540;42.136;24.742;2023-07-20T02:50:55;2.22;;;2.13;;
80229;SDS011;69540;42.136;24.742;2023-07-20T02:53:21;2.40;;;2.30;;
80229;SDS011;69540;42.136;24.742;2023-07-20T02:55:47;2.38;;;2.20;;
80229;SDS011;69540;42.136;24.742;2023-07-20T02:58:12;2.78;;;2.20;;
80229;SDS011;69540;42.136;24.742;2023-07-20T03:00:38;2.30;;;2.20;;
80229;SDS011;69540;42.136;24.742;2023-07-20T03:03:04;2.47;;;2.28;;
80229;SDS011;69540;42.136;24.742;2023-07-20T03:05:34;2.40;;;2.20;;
80229;SDS011;69540;42.136;24.742;2023-07-20T03:08:03;2.30;;;2.20;;
80229;SDS011;69540;42.136;24.742;2023-07-20T03:10:31;2.17;;;2.08;;
80229;SDS011;69540;42.136;24.742;2023-07-20T03:12:57;2.20;;;2.08;;
80229;SDS011;69540;42.136;24.742;2023-07-20T03:15:23;2.40;;;2.17;;
80229;SDS011;69540;42.136;24.742;2023-07-20T03:17:48;2.53;;;2.33;;
80229;SDS011;69540;42.136;24.742;2023-07-20T03:20:14;2.13;;;2.03;;
80229;SDS011;69540;42.136;24.742;2023-07-20T03:22:40;2.70;;;2.50;;
80229;SDS011;69540;42.136;24.742;2023-07-20T03:25:05;2.38;;;2.28;;
80229;SDS011;69540;42.136;24.742;2023-07-20T03:27:31;2.50;;;2.30;;
80229;SDS011;69540;42.136;24.742;2023-07-20T03:29:57;2.40;;;2.20;;
80229;SDS011;69540;42.136;24.742;2023-07-20T03:32:22;2.53;;;2.33;;
80229;SDS011;69540;42.136;24.742;2023-07-20T03:34:48;2.50;;;2.40;;
80229;SDS011;69540;42.136;24.742;2023-07-20T03:37:14;2.47;;;2.38;;
80229;SDS011;69540;42.136;24.742;2023-07-20T03:39:40;2.38;;;2.20;;
80229;SDS011;69540;42.136;24.742;2023-07-20T03:42:05;2.58;;;2.15;;
80229;SDS011;69540;42.136;24.742;2023-07-20T03:44:31;2.30;;;2.20;;
80229;SDS011;69540;42.136;24.742;2023-07-20T03:46:57;2.40;;;2.25;;
80229;SDS011;69540;42.136;24.742;2023-07-20T03:49:22;2.67;;;2.53;;
80229;SDS011;69540;42.136;24.742;2023-07-20T03:51:48;3.15;;;2.85;;
80229;SDS011;69540;42.136;24.742;2023-07-20T03:54:14;4.45;;;3.00;;
80229;SDS011;69540;42.136;24.742;2023-07-20T03:56:39;5.15;;;3.60;;
80229;SDS011;69540;42.136;24.742;2023-07-20T03:59:05;3.70;;;3.22;;
80229;SDS011;69540;42.136;24.742;2023-07-20T04:01:30;6.07;;;3.30;;
80229;SDS011;69540;42.136;24.742;2023-07-20T04:04:01;4.38;;;3.72;;
80229;SDS011;69540;42.136;24.742;2023-07-20T04:06:29;5.43;;;3.75;;
80229;SDS011;69540;42.136;24.742;2023-07-20T04:08:54;4.70;;;4.00;;
80229;SDS011;69540;42.136;24.742;2023-07-20T04:11:20;4.25;;;3.80;;
80229;SDS011;69540;42.136;24.742;2023-07-20T04:13:46;5.97;;;4.20;;
80229;SDS011;69540;42.136;24.742;2023-07-20T04:16:11;8.18;;;4.50;;
80229;SDS011;69540;42.136;24.742;2023-07-20T04:18:37;12.27;;;4.85;;
80229;SDS011;69540;42.136;24.742;2023-07-20T04:21:02;9.07;;;4.93;;
80229;SDS011;69540;42.136;24.742;2023-07-20T04:23:28;12.73;;;5.43;;
80229;SDS011;69540;42.136;24.742;2023-07-20T04:25:54;11.43;;;5.00;;
80229;SDS011;69540;42.136;24.742;2023-07-20T04:28:19;8.63;;;5.15;;
80229;SDS011;69540;42.136;24.742;2023-07-20T04:30:48;11.05;;;5.50;;
80229;SDS011;69540;42.136;24.742;2023-07-20T04:33:16;9.55;;;5.57;;
80229;SDS011;69540;42.136;24.742;2023-07-20T04:35:52;13.70;;;5.60;;
80229;SDS011;69540;42.136;24.742;2023-07-20T04:38:19;11.27;;;5.53;;
80229;SDS011;69540;42.136;24.742;2023-07-20T04:40:45;6.85;;;5.30;;
80229;SDS011;69540;42.136;24.742;2023-07-20T04:43:13;11.55;;;5.65;;
80229;SDS011;69540;42.136;24.742;2023-07-20T04:45:39;10.52;;;5.53;;
80229;SDS011;69540;42.136;24.742;2023-07-20T04:48:06;10.02;;;6.20;;
80229;SDS011;69540;42.136;24.742;2023-07-20T04:50:34;10.35;;;6.25;;
80229;SDS011;69540;42.136;24.742;2023-07-20T04:53:00;7.72;;;5.47;;
80229;SDS011;69540;42.136;24.742;2023-07-20T04:55:27;12.27;;;5.82;;
80229;SDS011;69540;42.136;24.742;2023-07-20T04:57:53;13.23;;;5.85;;
80229;SDS011;69540;42.136;24.742;2023-07-20T05:00:18;10.55;;;5.45;;
80229;SDS011;69540;42.136;24.742;2023-07-20T05:02:44;8.50;;;5.40;;
80229;SDS011;69540;42.136;24.742;2023-07-20T05:05:12;12.02;;;5.47;;
80229;SDS011;69540;42.136;24.742;2023-07-20T05:07:38;10.18;;;5.32;;
80229;SDS011;69540;42.136;24.742;2023-07-20T05:10:04;11.52;;;5.40;;
80229;SDS011;69540;42.136;24.742;2023-07-20T05:12:30;12.73;;;5.93;;
80229;SDS011;69540;42.136;24.742;2023-07-20T05:14:55;9.00;;;5.10;;
80229;SDS011;69540;42.136;24.742;2023-07-20T05:17:21;7.45;;;5.00;;
80229;SDS011;69540;42.136;24.742;2023-07-20T05:19:46;10.13;;;5.28;;
80229;SDS011;69540;42.136;24.742;2023-07-20T05:22:15;8.88;;;5.30;;
80229;SDS011;69540;42.136;24.742;2023-07-20T05:24:40;9.52;;;5.18;;
80229;SDS011;69540;42.136;24.742;2023-07-20T05:27:06;8.40;;;5.35;;
80229;SDS011;69540;42.136;24.742;2023-07-20T05:29:32;8.70;;;5.10;;
80229;SDS011;69540;42.136;24.742;2023-07-20T05:31:58;9.30;;;5.47;;
80229;SDS011;69540;42.136;24.742;2023-07-20T05:34:23;8.70;;;5.57;;
80229;SDS011;69540;42.136;24.742;2023-07-20T05:36:49;10.73;;;5.60;;
80229;SDS011;69540;42.136;24.742;2023-07-20T05:39:16;7.63;;;5.35;;
80229;SDS011;69540;42.136;24.742;2023-07-20T05:41:43;8.77;;;5.63;;
80229;SDS011;69540;42.136;24.742;2023-07-20T05:44:08;7.57;;;5.25;;
80229;SDS011;69540;42.136;24.742;2023-07-20T05:46:34;9.18;;;5.22;;
80229;SDS011;69540;42.136;24.742;2023-07-20T05:49:00;7.00;;;5.05;;
80229;SDS011;69540;42.136;24.742;2023-07-20T05:51:26;7.85;;;5.03;;
80229;SDS011;69540;42.136;24.742;2023-07-20T05:53:52;8.65;;;4.75;;
80229;SDS011;69540;42.136;24.742;2023-07-20T05:56:18;6.32;;;4.75;;
80229;SDS011;69540;42.136;24.742;2023-07-20T05:58:43;8.27;;;5.10;;
80229;SDS011;69540;42.136;24.742;2023-07-20T06:01:09;6.95;;;4.60;;
80229;SDS011;69540;42.136;24.742;2023-07-20T06:03:35;5.22;;;4.68;;
80229;SDS011;69540;42.136;24.742;2023-07-20T06:06:02;7.38;;;4.30;;
80229;SDS011;69540;42.136;24.742;2023-07-20T06:08:29;5.07;;;4.53;;
80229;SDS011;69540;42.136;24.742;2023-07-20T06:10:56;7.63;;;4.82;;
80229;SDS011;69540;42.136;24.742;2023-07-20T06:13:22;5.43;;;4.63;;
80229;SDS011;69540;42.136;24.742;2023-07-20T06:15:48;7.03;;;4.55;;
80229;SDS011;69540;42.136;24.742;2023-07-20T06:18:14;6.55;;;4.28;;
80229;SDS011;69540;42.136;24.742;2023-07-20T06:20:40;6.93;;;4.28;;
80229;SDS011;69540;42.136;24.742;2023-07-20T06:23:06;6.03;;;4.60;;
80229;SDS011;69540;42.136;24.742;2023-07-20T06:25:32;5.95;;;4.45;;
80229;SDS011;69540;42.136;24.742;2023-07-20T06:27:57;8.02;;;4.75;;
80229;SDS011;69540;42.136;24.742;2023-07-20T06:30:23;5.15;;;4.25;;
80229;SDS011;69540;42.136;24.742;2023-07-20T06:32:49;7.28;;;4.32;;
80229;SDS011;69540;42.136;24.742;2023-07-20T06:35:16;7.63;;;4.60;;
80229;SDS011;69540;42.136;24.742;2023-07-20T06:37:42;6.18;;;4.55;;
80229;SDS011;69540;42.136;24.742;2023-07-20T06:40:08;4.82;;;4.05;;
80229;SDS011;69540;42.136;24.742;2023-07-20T06:42:34;4.50;;;4.10;;
80229;SDS011;69540;42.136;24.742;2023-07-20T06:45:01;5.05;;;4.10;;
80229;SDS011;69540;42.136;24.742;2023-07-20T06:47:27;6.93;;;4.20;;
80229;SDS011;69540;42.136;24.742;2023-07-20T06:49:53;5.20;;;4.05;;
80229;SDS011;69540;42.136;24.742;2023-07-20T06:52:18;4.38;;;3.75;;
80229;SDS011;69540;42.136;24.742;2023-07-20T06:54:44;4.75;;;4.15;;
80229;SDS011;69540;42.136;24.742;2023-07-20T06:57:09;6.63;;;4.32;;
80229;SDS011;69540;42.136;24.742;2023-07-20T06:59:35;4.45;;;4.05;;
80229;SDS011;69540;42.136;24.742;2023-07-20T07:02:01;4.47;;;4.07;;
80229;SDS011;69540;42.136;24.742;2023-07-20T07:04:26;7.10;;;3.95;;
80229;SDS011;69540;42.136;24.742;2023-07-20T07:06:52;5.68;;;4.28;;
80229;SDS011;69540;42.136;24.742;2023-07-20T07:09:18;5.13;;;4.07;;
80229;SDS011;69540;42.136;24.742;2023-07-20T07:11:43;4.13;;;3.72;;
80229;SDS011;69540;42.136;24.742;2023-07-20T07:14:09;5.85;;;3.95;;
80229;SDS011;69540;42.136;24.742;2023-07-20T07:16:37;4.97;;;3.72;;
80229;SDS011;69540;42.136;24.742;2023-07-20T07:19:02;5.78;;;4.05;;
80229;SDS011;69540;42.136;24.742;2023-07-20T07:21:28;4.07;;;3.60;;
80229;SDS011;69540;42.136;24.742;2023-07-20T07:23:54;4.40;;;4.00;;
80229;SDS011;69540;42.136;24.742;2023-07-20T07:26:22;4.07;;;3.55;;
80229;SDS011;69540;42.136;24.742;2023-07-20T07:28:48;4.28;;;3.88;;
80229;SDS011;69540;42.136;24.742;2023-07-20T07:31:14;4.97;;;4.07;;
80229;SDS011;69540;42.136;24.742;2023-07-20T07:33:40;5.20;;;4.03;;
80229;SDS011;69540;42.136;24.742;2023-07-20T07:36:06;3.60;;;3.30;;
80229;SDS011;69540;42.136;24.742;2023-07-20T07:38:32;4.07;;;3.65;;
80229;SDS011;69540;42.136;24.742;2023-07-20T07:40:58;4.13;;;3.72;;
80229;SDS011;69540;42.136;24.742;2023-07-20T07:43:24;4.45;;;3.60;;
80229;SDS011;69540;42.136;24.742;2023-07-20T07:45:50;4.53;;;3.58;;
80229;SDS011;69540;42.136;24.742;2023-07-20T07:48:18;4.10;;;3.70;;
80229;SDS011;69540;42.136;24.742;2023-07-20T07:50:45;4.43;;;3.70;;
80229;SDS011;69540;42.136;24.742;2023-07-20T07:53:11;6.20;;;3.60;;
80229;SDS011;69540;42.136;24.742;2023-07-20T07:55:37;4.80;;;3.60;;
80229;SDS011;69540;42.136;24.742;2023-07-20T07:58:02;6.35;;;3.60;;
80229;SDS011;69540;42.136;24.742;2023-07-20T08:00:28;4.47;;;3.70;;
80229;SDS011;69540;42.136;24.742;2023-07-20T08:02:54;5.47;;;3.95;;
80229;SDS011;69540;42.136;24.742;2023-07-20T08:05:19;4.97;;;3.42;;
80229;SDS011;69540;42.136;24.742;2023-07-20T08:07:45;6.50;;;3.58;;
80229;SDS011;69540;42.136;24.742;2023-07-20T08:10:11;4.82;;;3.30;;
80229;SDS011;69540;42.136;24.742;2023-07-20T08:12:37;6.43;;;3.38;;
80229;SDS011;69540;42.136;24.742;2023-07-20T08:15:02;7.38;;;3.95;;
80229;SDS011;69540;42.136;24.742;2023-07-20T08:17:29;4.78;;;3.63;;
80229;SDS011;69540;42.136;24.742;2023-07-20T08:19:54;5.55;;;3.40;;
80229;SDS011;69540;42.136;24.742;2023-07-20T08:22:20;6.68;;;3.65;;
80229;SDS011;69540;42.136;24.742;2023-07-20T08:24:46;5.00;;;3.60;;
80229;SDS011;69540;42.136;24.742;2023-07-20T08:27:12;4.15;;;3.20;;
80229;SDS011;69540;42.136;24.742;2023-07-20T08:29:38;5.00;;;3.85;;
80229;SDS011;69540;42.136;24.742;2023-07-20T08:32:04;6.90;;;3.42;;
80229;SDS011;69540;42.136;24.742;2023-07-20T08:34:31;5.80;;;3.83;;
80229;SDS011;69540;42.136;24.742;2023-07-20T08:36:57;4.30;;;3.33;;
80229;SDS011;69540;42.136;24.742;2023-07-20T08:39:23;6.43;;;3.40;;
80229;SDS011;69540;42.136;24.742;2023-07-20T08:41:50;3.78;;;3.40;;
80229;SDS011;69540;42.136;24.742;2023-07-20T08:44:18;3.95;;;3.38;;
80229;SDS011;69540;42.136;24.742;2023-07-20T08:46:44;4.50;;;3.53;;
80229;SDS011;69540;42.136;24.742;2023-07-20T08:49:12;3.80;;;3.47;;
80229;SDS011;69540;42.136;24.742;2023-07-20T08:51:38;7.45;;;3.47;;
80229;SDS011;69540;42.136;24.742;2023-07-20T08:54:06;4.75;;;3.30;;
80229;SDS011;69540;42.136;24.742;2023-07-20T08:56:33;6.93;;;3.50;;
80229;SDS011;69540;42.136;24.742;2023-07-20T08:58:59;4.05;;;3.33;;
80229;SDS011;69540;42.136;24.742;2023-07-20T09:01:26;4.13;;;3.13;;
80229;SDS011;69540;42.136;24.742;2023-07-20T09:03:54;5.63;;;3.70;;
80229;SDS011;69540;42.136;24.742;2023-07-20T09:06:20;4.00;;;3.70;;
80229;SDS011;69540;42.136;24.742;2023-07-20T09:08:45;3.88;;;3.08;;
80229;SDS011;69540;42.136;24.742;2023-07-20T09:11:11;5.07;;;3.40;;
80229;SDS011;69540;42.136;24.742;2023-07-20T09:13:40;4.85;;;3.20;;
80229;SDS011;69540;42.136;24.742;2023-07-20T09:16:06;5.03;;;3.08;;
80229;SDS011;69540;42.136;24.742;2023-07-20T09:18:32;6.20;;;2.97;;
80229;SDS011;69540;42.136;24.742;2023-07-20T09:21:02;4.10;;;3.10;;
80229;SDS011;69540;42.136;24.742;2023-07-20T09:23:35;5.30;;;3.08;;
80229;SDS011;69540;42.136;24.742;2023-07-20T09:26:11;3.70;;;3.20;;
80229;SDS011;69540;42.136;24.742;2023-07-20T09:28:48;4.53;;;3.15;;
80229;SDS011;69540;42.136;24.742;2023-07-20T09:31:19;3.17;;;2.88;;
80229;SDS011;69540;42.136;24.742;2023-07-20T09:33:48;5.20;;;3.15;;
80229;SDS011;69540;42.136;24.742;2023-07-20T09:36:16;9.05;;;3.20;;
80229;SDS011;69540;42.136;24.742;2023-07-20T09:38:42;4.07;;;3.30;;
80229;SDS011;69540;42.136;24.742;2023-07-20T09:41:12;3.75;;;3.00;;
80229;SDS011;69540;42.136;24.742;2023-07-20T09:43:43;3.15;;;2.80;;
80229;SDS011;69540;42.136;24.742;2023-07-20T09:46:10;4.43;;;3.17;;
80229;SDS011;69540;42.136;24.742;2023-07-20T09:48:36;3.50;;;3.10;;
80229;SDS011;69540;42.136;24.742;2023-07-20T09:51:02;3.22;;;2.92;;
80229;SDS011;69540;42.136;24.742;2023-07-20T09:53:30;4.50;;;2.75;;
80229;SDS011;69540;42.136;24.742;2023-07-20T09:55:58;3.65;;;3.05;;
80229;SDS011;69540;42.136;24.742;2023-07-20T09:58:25;4.88;;;2.90;;
80229;SDS011;69540;42.136;24.742;2023-07-20T10:00:51;4.22;;;2.90;;
80229;SDS011;69540;42.136;24.742;2023-07-20T10:03:20;3.45;;;3.00;;
80229;SDS011;69540;42.136;24.742;2023-07-20T10:05:57;4.15;;;3.10;;
80229;SDS011;69540;42.136;24.742;2023-07-20T10:08:29;3.35;;;3.05;;
80229;SDS011;69540;42.136;24.742;2023-07-20T10:10:55;3.85;;;3.30;;
80229;SDS011;69540;42.136;24.742;2023-07-20T10:13:28;2.78;;;2.58;;
80229;SDS011;69540;42.136;24.742;2023-07-20T10:16:09;4.97;;;3.28;;
80229;SDS011;69540;42.136;24.742;2023-07-20T10:21:37;3.42;;;2.88;;
80229;SDS011;69540;42.136;24.742;2023-07-20T10:24:07;4.53;;;3.00;;
80229;SDS011;69540;42.136;24.742;2023-07-20T10:26:34;3.80;;;3.10;;
80229;SDS011;69540;42.136;24.742;2023-07-20T10:29:01;5.20;;;3.30;;
80229;SDS011;69540;42.136;24.742;2023-07-20T10:31:28;4.38;;;3.10;;
80229;SDS011;69540;42.136;24.742;2023-07-20T10:33:56;2.95;;;2.65;;
80229;SDS011;69540;42.136;24.742;2023-07-20T10:36:26;4.50;;;2.75;;
80229;SDS011;69540;42.136;24.742;2023-07-20T10:38:53;3.28;;;2.90;;
80229;SDS011;69540;42.136;24.742;2023-07-20T10:41:21;4.28;;;2.80;;
80229;SDS011;69540;42.136;24.742;2023-07-20T10:44:13;3.78;;;3.00;;
80229;SDS011;69540;42.136;24.742;2023-07-20T10:46:45;3.42;;;2.92;;
80229;SDS011;69540;42.136;24.742;2023-07-20T10:49:12;4.15;;;2.85;;
80229;SDS011;69540;42.136;24.742;2023-07-20T10:54:33;3.40;;;2.95;;
80229;SDS011;69540;42.136;24.742;2023-07-20T10:56:55;3.35;;;2.90;;
80229;SDS011;69540;42.136;24.742;2023-07-20T11:01:54;4.25;;;2.83;;
80229;SDS011;69540;42.136;24.742;2023-07-20T11:04:37;3.38;;;3.00;;
80229;SDS011;69540;42.136;24.742;2023-07-20T11:07:10;4.82;;;3.13;;
80229;SDS011;69540;42.136;24.742;2023-07-20T11:09:39;2.83;;;2.63;;
80229;SDS011;69540;42.136;24.742;2023-07-20T11:12:09;3.15;;;2.75;;
80229;SDS011;69540;42.136;24.742;2023-07-20T11:14:56;3.40;;;2.83;;
80229;SDS011;69540;42.136;24.742;2023-07-20T11:17:29;3.00;;;2.55;;
80229;SDS011;69540;42.136;24.742;2023-07-20T11:19:56;3.17;;;2.80;;
80229;SDS011;69540;42.136;24.742;2023-07-20T11:22:22;4.05;;;2.70;;
80229;SDS011;69540;42.136;24.742;2023-07-20T11:24:48;3.88;;;2.80;;
80229;SDS011;69540;42.136;24.742;2023-07-20T11:27:14;3.88;;;3.00;;
80229;SDS011;69540;42.136;24.742;2023-07-20T11:29:40;3.28;;;2.97;;
80229;SDS011;69540;42.136;24.742;2023-07-20T11:32:06;3.40;;;2.67;;
80229;SDS011;69540;42.136;24.742;2023-07-20T11:34:33;5.07;;;2.88;;
80229;SDS011;69540;42.136;24.742;2023-07-20T11:36:59;2.75;;;2.55;;
80229;SDS011;69540;42.136;24.742;2023-07-20T11:39:25;3.28;;;2.97;;
80229;SDS011;69540;42.136;24.742;2023-07-20T11:41:52;4.68;;;2.80;;
80229;SDS011;69540;42.136;24.742;2023-07-20T11:44:19;4.03;;;2.75;;
80229;SDS011;69540;42.136;24.742;2023-07-20T11:49:24;2.97;;;2.75;;
80229;SDS011;69540;42.136;24.742;2023-07-20T11:51:50;3.55;;;2.72;;
80229;SDS011;69540;42.136;24.742;2023-07-20T11:54:16;3.15;;;2.75;;
80229;SDS011;69540;42.136;24.742;2023-07-20T11:56:43;3.47;;;2.75;;
80229;SDS011;69540;42.136;24.742;2023-07-20T11:59:09;3.67;;;2.70;;
80229;SDS011;69540;42.136;24.742;2023-07-20T12:01:34;2.90;;;2.60;;
80229;SDS011;69540;42.136;24.742;2023-07-20T12:04:00;3.08;;;2.78;;
80229;SDS011;69540;42.136;24.742;2023-07-20T12:06:28;3.50;;;2.65;;
80229;SDS011;69540;42.136;24.742;2023-07-20T12:08:54;3.25;;;2.60;;
80229;SDS011;69540;42.136;24.742;2023-07-20T12:13:57;3.85;;;2.75;;
80229;SDS011;69540;42.136;24.742;2023-07-20T12:16:26;3.22;;;2.60;;
80229;SDS011;69540;42.136;24.742;2023-07-20T12:19:00;3.20;;;2.90;;
80229;SDS011;69540;42.136;24.742;2023-07-20T12:21:26;3.67;;;2.60;;
80229;SDS011;69540;42.136;24.742;2023-07-20T12:23:51;2.83;;;2.60;;
80229;SDS011;69540;42.136;24.742;2023-07-20T12:26:17;3.53;;;2.63;;
80229;SDS011;69540;42.136;24.742;2023-07-20T12:28:42;3.92;;;2.88;;
80229;SDS011;69540;42.136;24.742;2023-07-20T12:31:08;3.13;;;2.83;;
80229;SDS011;69540;42.136;24.742;2023-07-20T12:33:36;3.63;;;2.92;;
80229;SDS011;69540;42.136;24.742;2023-07-20T12:36:03;2.88;;;2.67;;
80229;SDS011;69540;42.136;24.742;2023-07-20T12:38:29;2.70;;;2.50;;
80229;SDS011;69540;42.136;24.742;2023-07-20T12:40:56;3.47;;;2.80;;
80229;SDS011;69540;42.136;24.742;2023-07-20T12:43:22;2.80;;;2.55;;
80229;SDS011;69540;42.136;24.742;2023-07-20T12:45:48;3.72;;;2.70;;
80229;SDS011;69540;42.136;24.742;2023-07-20T12:48:13;2.80;;;2.60;;
80229;SDS011;69540;42.136;24.742;2023-07-20T12:50:39;3.20;;;2.90;;
80229;SDS011;69540;42.136;24.742;2023-07-20T12:53:05;2.83;;;2.60;;
80229;SDS011;69540;42.136;24.742;2023-07-20T12:55:31;3.22;;;2.70;;
80229;SDS011;69540;42.136;24.742;2023-07-20T12:57:57;2.72;;;2.47;;
80229;SDS011;69540;42.136;24.742;2023-07-20T13:00:22;3.78;;;2.58;;
80229;SDS011;69540;42.136;24.742;2023-07-20T13:02:48;4.15;;;2.78;;
80229;SDS011;69540;42.136;24.742;2023-07-20T13:05:14;2.70;;;2.50;;
80229;SDS011;69540;42.136;24.742;2023-07-20T13:07:41;3.10;;;2.70;;
80229;SDS011;69540;42.136;24.742;2023-07-20T13:10:07;3.03;;;2.80;;
80229;SDS011;69540;42.136;24.742;2023-07-20T13:12:34;3.47;;;2.60;;
80229;SDS011;69540;42.136;24.742;2023-07-20T13:15:03;2.70;;;2.50;;
80229;SDS011;69540;42.136;24.742;2023-07-20T13:17:36;4.13;;;2.78;;
80229;SDS011;69540;42.136;24.742;2023-07-20T13:20:04;3.08;;;2.80;;
80229;SDS011;69540;42.136;24.742;2023-07-20T13:22:31;2.92;;;2.53;;
80229;SDS011;69540;42.136;24.742;2023-07-20T13:24:57;3.28;;;2.75;;
80229;SDS011;69540;42.136;24.742;2023-07-20T13:27:23;3.97;;;2.65;;
80229;SDS011;69540;42.136;24.742;2023-07-20T13:29:51;2.65;;;2.45;;
80229;SDS011;69540;42.136;24.742;2023-07-20T13:32:17;2.92;;;2.72;;
80229;SDS011;69540;42.136;24.742;2023-07-20T13:34:43;5.20;;;2.60;;
80229;SDS011;69540;42.136;24.742;2023-07-20T13:37:13;2.80;;;2.60;;
80229;SDS011;69540;42.136;24.742;2023-07-20T13:39:39;3.67;;;2.63;;
80229;SDS011;69540;42.136;24.742;2023-07-20T13:42:05;2.90;;;2.70;;
80229;SDS011;69540;42.136;24.742;2023-07-20T13:44:31;4.30;;;2.70;;
80229;SDS011;69540;42.136;24.742;2023-07-20T13:46:57;2.83;;;2.63;;
80229;SDS011;69540;42.136;24.742;2023-07-20T13:49:23;2.60;;;2.40;;
80229;SDS011;69540;42.136;24.742;2023-07-20T13:51:49;3.60;;;2.45;;
80229;SDS011;69540;42.136;24.742;2023-07-20T13:54:15;2.85;;;2.65;;
80229;SDS011;69540;42.136;24.742;2023-07-20T13:56:40;2.58;;;2.38;;
80229;SDS011;69540;42.136;24.742;2023-07-20T13:59:06;2.70;;;2.50;;
80229;SDS011;69540;42.136;24.742;2023-07-20T14:01:32;2.70;;;2.50;;
80229;SDS011;69540;42.136;24.742;2023-07-20T14:03:59;2.63;;;2.42;;
80229;SDS011;69540;42.136;24.742;2023-07-20T14:06:25;2.70;;;2.47;;
80229;SDS011;69540;42.136;24.742;2023-07-20T14:08:54;2.88;;;2.47;;
80229;SDS011;69540;42.136;24.742;2023-07-20T14:11:20;2.67;;;2.47;;
80229;SDS011;69540;42.136;24.742;2023-07-20T14:13:45;3.08;;;2.40;;
80229;SDS011;69540;42.136;24.742;2023-07-20T14:16:11;2.50;;;2.30;;
80229;SDS011;69540;42.136;24.742;2023-07-20T14:18:36;2.60;;;2.40;;
80229;SDS011;69540;42.136;24.742;2023-07-20T14:21:02;2.30;;;2.10;;
80229;SDS011;69540;42.136;24.742;2023-07-20T14:23:29;2.67;;;2.47;;
80229;SDS011;69540;42.136;24.742;2023-07-20T14:25:55;2.50;;;2.30;;
80229;SDS011;69540;42.136;24.742;2023-07-20T14:28:21;2.47;;;2.30;;
80229;SDS011;69540;42.136;24.742;2023-07-20T14:30:47;2.78;;;2.38;;
80229;SDS011;69540;42.136;24.742;2023-07-20T14:33:13;2.53;;;2.30;;
80229;SDS011;69540;42.136;24.742;2023-07-20T14:35:38;2.50;;;2.30;;
80229;SDS011;69540;42.136;24.742;2023-07-20T14:38:04;2.30;;;2.10;;
80229;SDS011;69540;42.136;24.742;2023-07-20T14:40:29;2.63;;;2.03;;
80229;SDS011;69540;42.136;24.742;2023-07-20T14:42:55;3.15;;;2.22;;
80229;SDS011;69540;42.136;24.742;2023-07-20T14:45:21;2.20;;;2.10;;
80229;SDS011;69540;42.136;24.742;2023-07-20T14:47:47;2.28;;;2.17;;
80229;SDS011;69540;42.136;24.742;2023-07-20T14:50:18;3.05;;;2.60;;
80229;SDS011;69540;42.136;24.742;2023-07-20T14:52:47;2.60;;;2.40;;